Time;durP1;ratioP1;P1;durP2;ratioP2;P2;SDS_P1;SDS_P2;PMS_P1;PMS_P2;Temp;Humidity;BMP_temperature;BMP_pressure;BME280_temperature;BME280_humidity;BME280_pressure;Samples;Min_cycle;Max_cycle;Signal;HPM_P1;HPM_P2
2021/03/19 00:01:01;;;;;;;13.57;8.07;;;1.50;90.50;;;;;;5039435;28;20069;-59
2021/03/19 00:04:06;;;;;;;15.13;6.97;;;1.50;90.40;;;;;;5046910;28;20052;-59
2021/03/19 00:07:10;;;;;;;17.92;7.70;;;1.50;90.80;;;;;;5047847;28;20048;-60
2021/03/19 00:10:21;;;;;;;14.65;7.63;;;1.40;91.10;;;;;;5052085;28;20513;-60
2021/03/19 00:13:26;;;;;;;12.65;6.55;;;1.40;91.30;;;;;;5051999;28;20521;-61
2021/03/19 00:16:31;;;;;;;9.65;6.10;;;1.30;91.70;;;;;;5028290;28;20476;-59
2021/03/19 00:19:35;;;;;;;11.38;6.13;;;1.30;92.30;;;;;;5052753;28;20029;-60
2021/03/19 00:22:40;;;;;;;11.32;6.30;;;1.20;92.50;;;;;;5051876;28;20052;-59
2021/03/19 00:25:45;;;;;;;9.02;5.40;;;1.30;92.40;;;;;;5051967;28;20048;-59
2021/03/19 00:28:49;;;;;;;12.02;5.90;;;1.30;92.30;;;;;;5052114;28;20033;-60
2021/03/19 00:31:54;;;;;;;10.48;5.70;;;1.30;92.70;;;;;;5051996;28;20040;-60
2021/03/19 00:34:58;;;;;;;10.15;6.03;;;1.20;92.80;;;;;;5038168;28;20052;-59
2021/03/19 00:38:02;;;;;;;8.15;4.88;;;1.10;93.00;;;;;;5051762;28;20059;-59
2021/03/19 00:41:06;;;;;;;8.27;5.00;;;1.20;93.20;;;;;;5051567;28;20503;-60
2021/03/19 00:44:11;;;;;;;7.22;4.68;;;1.20;92.90;;;;;;5051629;28;20049;-60
2021/03/19 00:47:15;;;;;;;6.47;4.35;;;1.30;92.80;;;;;;5051716;28;20040;-59
2021/03/19 00:50:37;;;;;;;7.25;4.43;;;1.40;92.90;;;;;;5038790;28;20037;-59
2021/03/19 00:53:42;;;;;;;9.95;4.38;;;1.50;91.70;;;;;;5038117;28;20495;-60
2021/03/19 00:56:46;;;;;;;7.10;4.20;;;1.70;91.60;;;;;;5051315;28;20028;-59
2021/03/19 00:59:51;;;;;;;8.52;5.10;;;1.60;91.50;;;;;;5051757;28;20497;-59
2021/03/19 01:02:56;;;;;;;10.90;5.97;;;1.50;92.50;;;;;;5051530;28;20243;-60
2021/03/19 01:06:00;;;;;;;9.38;5.53;;;1.40;92.90;;;;;;5038923;28;20154;-58
2021/03/19 01:09:05;;;;;;;14.00;6.38;;;1.30;92.90;;;;;;5039363;28;20037;-59
2021/03/19 01:12:10;;;;;;;6.28;4.13;;;1.30;92.80;;;;;;5051583;28;20043;-61
2021/03/19 01:15:14;;;;;;;7.50;4.72;;;1.30;93.00;;;;;;5050923;28;20045;-59
2021/03/19 01:18:21;;;;;;;9.27;4.97;;;1.30;92.70;;;;;;5050825;28;20037;-59
2021/03/19 01:21:26;;;;;;;6.90;4.50;;;1.20;93.40;;;;;;5039934;28;20072;-59
2021/03/19 01:24:31;;;;;;;8.35;4.30;;;1.30;93.40;;;;;;5038412;28;20033;-60
2021/03/19 01:27:36;;;;;;;5.95;4.00;;;1.20;93.30;;;;;;5050837;28;20028;-58
2021/03/19 01:30:41;;;;;;;6.88;3.88;;;1.20;93.60;;;;;;5051200;28;20045;-59
2021/03/19 01:33:45;;;;;;;6.47;4.40;;;1.10;93.80;;;;;;5050882;28;20032;-60
2021/03/19 01:36:49;;;;;;;7.18;3.88;;;1.30;93.60;;;;;;5050828;28;20493;-58
2021/03/19 01:39:53;;;;;;;8.18;4.20;;;1.30;93.30;;;;;;5037757;28;20064;-60
2021/03/19 01:43:02;;;;;;;10.38;4.35;;;1.30;93.20;;;;;;5050930;28;20041;-59
2021/03/19 01:46:43;;;;;;;6.45;3.95;;;1.20;93.70;;;;;;5045784;28;20406;-59
2021/03/19 01:50:29;;;;;;;5.78;4.10;;;1.20;94.10;;;;;;5033694;28;20021;-60
2021/03/19 01:54:11;;;;;;;6.13;3.95;;;1.10;94.50;;;;;;5037612;28;20033;-61
2021/03/19 01:57:53;;;;;;;7.97;4.97;;;1.30;93.60;;;;;;5037341;28;20404;-59
2021/03/19 02:01:35;;;;;;;6.43;4.32;;;1.20;94.20;;;;;;5038381;28;20029;-59
2021/03/19 02:05:17;;;;;;;8.52;4.45;;;1.10;94.90;;;;;;5040446;28;20406;-58
2021/03/19 02:08:59;;;;;;;8.77;3.70;;;1.10;94.60;;;;;;5043724;28;20024;-59
2021/03/19 02:12:41;;;;;;;11.82;6.38;;;1.20;94.40;;;;;;5045499;28;20033;-61
2021/03/19 02:16:23;;;;;;;9.17;4.33;;;1.20;94.60;;;;;;5049782;28;20031;-58
2021/03/19 02:20:05;;;;;;;8.93;5.32;;;1.00;95.10;;;;;;5036440;28;20621;-59
2021/03/19 02:23:47;;;;;;;10.82;4.88;;;0.70;96.10;;;;;;5050036;28;20045;-58
2021/03/19 02:27:29;;;;;;;10.63;5.45;;;0.50;97.30;;;;;;5041710;28;20518;-60
2021/03/19 02:31:11;;;;;;;10.43;5.80;;;0.40;98.60;;;;;;5043385;28;20047;-58
2021/03/19 02:34:16;;;;;;;7.95;5.28;;;0.40;98.80;;;;;;5033916;28;20641;-59
2021/03/19 02:37:23;;;;;;;8.38;5.13;;;0.50;98.90;;;;;;5049519;28;20032;-59
2021/03/19 02:40:27;;;;;;;10.57;5.47;;;0.30;99.20;;;;;;5049936;28;20045;-61
2021/03/19 02:43:31;;;;;;;6.95;5.03;;;0.30;99.90;;;;;;5038440;28;20060;-59
2021/03/19 02:46:36;;;;;;;8.95;5.05;;;0.20;99.90;;;;;;5048793;28;20040;-59
2021/03/19 02:49:40;;;;;;;8.50;5.57;;;0.20;99.90;;;;;;5049333;28;20036;-59
2021/03/19 02:52:45;;;;;;;13.40;5.40;;;0.10;99.90;;;;;;5049483;28;20032;-59
2021/03/19 02:55:50;;;;;;;9.30;5.50;;;-0.40;99.90;;;;;;5039664;28;20036;-58
2021/03/19 02:58:54;;;;;;;15.30;6.15;;;-0.40;99.90;;;;;;5037060;28;20052;-61
2021/03/19 03:01:58;;;;;;;12.82;5.70;;;-0.40;99.90;;;;;;5041889;28;20039;-60
2021/03/19 03:05:03;;;;;;;10.63;5.75;;;-0.40;99.90;;;;;;5048839;28;20036;-56
2021/03/19 03:08:08;;;;;;;7.43;4.45;;;-0.30;99.90;;;;;;5048896;28;20044;-59
2021/03/19 03:11:14;;;;;;;9.57;4.45;;;-0.30;99.90;;;;;;5049494;28;20052;-58
2021/03/19 03:14:21;;;;;;;7.82;4.75;;;-0.30;99.90;;;;;;5049570;28;20048;-59
2021/03/19 03:17:25;;;;;;;10.00;4.65;;;-0.30;99.90;;;;;;5024890;28;20060;-57
2021/03/19 03:20:35;;;;;;;8.73;4.88;;;-0.40;99.90;;;;;;5049206;28;20040;-58
2021/03/19 03:23:39;;;;;;;8.77;5.15;;;-0.40;99.90;;;;;;5049381;28;20044;-59
2021/03/19 03:26:44;;;;;;;9.38;4.82;;;-0.40;99.90;;;;;;5048642;28;20528;-59
2021/03/19 03:29:48;;;;;;;10.15;4.90;;;-0.30;99.90;;;;;;5049143;28;20052;-59
2021/03/19 03:32:52;;;;;;;8.45;4.55;;;-0.20;99.90;;;;;;5038393;28;20048;-59
2021/03/19 03:35:56;;;;;;;9.35;5.38;;;0.00;99.90;;;;;;5033729;28;20032;-58
2021/03/19 03:39:09;;;;;;;10.23;4.85;;;-0.10;99.90;;;;;;5047746;28;20033;-58
2021/03/19 03:42:14;;;;;;;16.33;4.75;;;0.00;99.90;;;;;;5051723;28;20399;-60
2021/03/19 03:45:18;;;;;;;7.55;4.72;;;0.10;99.90;;;;;;5052582;28;20060;-59
2021/03/19 03:48:26;;;;;;;7.20;4.40;;;0.20;99.90;;;;;;5053183;28;20029;-57
2021/03/19 03:51:30;;;;;;;8.65;4.45;;;0.30;99.90;;;;;;5041093;28;20467;-59
2021/03/19 03:54:35;;;;;;;7.82;4.50;;;0.40;99.90;;;;;;5052731;28;20037;-60
2021/03/19 03:57:39;;;;;;;11.05;4.57;;;0.30;99.90;;;;;;5052188;28;20049;-60
2021/03/19 04:00:44;;;;;;;11.00;5.72;;;0.50;99.90;;;;;;5052981;28;20048;-59
2021/03/19 04:03:49;;;;;;;6.88;4.88;;;0.30;99.90;;;;;;5052830;28;20052;-60
2021/03/19 04:06:54;;;;;;;7.60;4.70;;;0.20;99.90;;;;;;5040745;28;20029;-60
2021/03/19 04:09:58;;;;;;;10.50;4.97;;;0.10;99.90;;;;;;5052609;28;20033;-59
2021/03/19 04:13:04;;;;;;;7.32;4.78;;;0.10;99.90;;;;;;5052576;28;20051;-59
2021/03/19 04:16:09;;;;;;;7.05;4.07;;;0.20;99.90;;;;;;5052032;28;20045;-58
2021/03/19 04:19:13;;;;;;;10.00;5.15;;;0.10;99.90;;;;;;5052589;28;20462;-60
2021/03/19 04:22:18;;;;;;;7.97;4.72;;;0.00;99.90;;;;;;5041018;28;20044;-57
2021/03/19 04:25:23;;;;;;;7.70;4.60;;;0.00;99.90;;;;;;5052043;28;20578;-57
2021/03/19 04:28:34;;;;;;;9.88;4.70;;;0.10;99.90;;;;;;5052339;28;20037;-59
2021/03/19 04:31:38;;;;;;;6.45;4.20;;;0.20;99.90;;;;;;5052431;28;20475;-57
2021/03/19 04:34:43;;;;;;;7.13;4.57;;;0.30;99.90;;;;;;5052841;28;20113;-58
2021/03/19 04:37:48;;;;;;;7.72;4.75;;;0.30;99.90;;;;;;5042457;28;20045;-61
2021/03/19 04:40:52;;;;;;;8.98;4.55;;;0.40;99.90;;;;;;5040264;28;20503;-60
2021/03/19 04:43:56;;;;;;;10.57;5.88;;;0.50;99.90;;;;;;5052339;28;20033;-60
2021/03/19 04:47:01;;;;;;;8.65;4.60;;;0.30;99.90;;;;;;5051710;28;20044;-59
2021/03/19 04:50:09;;;;;;;7.30;4.40;;;0.20;99.90;;;;;;5052470;28;20033;-59
2021/03/19 04:53:13;;;;;;;8.63;4.80;;;0.30;99.90;;;;;;5051357;28;20040;-60
2021/03/19 04:56:18;;;;;;;8.93;5.30;;;0.50;99.90;;;;;;5040196;28;20032;-61
2021/03/19 04:59:23;;;;;;;7.72;4.47;;;0.50;99.90;;;;;;5066544;28;20081;-60
2021/03/19 05:02:35;;;;;;;7.15;4.93;;;0.50;99.90;;;;;;5051867;28;20037;-58
2021/03/19 05:05:39;;;;;;;7.57;4.82;;;0.40;99.90;;;;;;5051777;28;20037;-59
2021/03/19 05:08:44;;;;;;;9.70;5.35;;;0.30;99.90;;;;;;5051908;28;20037;-58
2021/03/19 05:11:49;;;;;;;9.50;5.00;;;0.30;99.90;;;;;;5038481;28;20037;-58
2021/03/19 05:14:53;;;;;;;7.38;4.57;;;0.20;99.90;;;;;;5051930;28;20029;-58
2021/03/19 05:17:57;;;;;;;9.45;5.20;;;0.10;99.90;;;;;;5050722;28;20396;-60
2021/03/19 05:21:02;;;;;;;11.13;5.20;;;0.10;99.90;;;;;;5051123;28;20045;-61
2021/03/19 05:24:07;;;;;;;9.35;4.35;;;0.10;99.90;;;;;;5051473;28;20044;-59
2021/03/19 05:27:12;;;;;;;8.32;4.78;;;0.10;99.90;;;;;;5037778;28;20037;-60
2021/03/19 05:30:17;;;;;;;9.55;4.43;;;0.20;99.90;;;;;;5050937;28;20025;-58
2021/03/19 05:33:27;;;;;;;7.47;4.60;;;0.10;99.90;;;;;;5051210;28;20368;-58
2021/03/19 05:36:34;;;;;;;7.80;4.47;;;0.00;99.90;;;;;;5050836;28;20380;-59
2021/03/19 05:39:38;;;;;;;6.85;4.47;;;-0.10;99.90;;;;;;5051413;28;20518;-57
2021/03/19 05:42:42;;;;;;;8.57;5.07;;;0.00;99.90;;;;;;5051315;28;20052;-57
2021/03/19 05:46:06;;;;;;;9.50;5.40;;;0.00;99.90;;;;;;5050338;28;20045;-60
2021/03/19 05:49:16;;;;;;;8.52;4.60;;;0.00;99.90;;;;;;5036605;28;20047;-58
2021/03/19 05:52:27;;;;;;;10.23;5.28;;;0.00;99.90;;;;;;5050185;28;20021;-60
2021/03/19 05:55:36;;;;;;;9.85;5.80;;;-0.40;99.90;;;;;;5037730;28;20040;-60
2021/03/19 05:58:42;;;;;;;9.15;4.80;;;-0.40;99.90;;;;;;5029501;28;20052;-60
2021/03/19 06:01:47;;;;;;;11.20;4.80;;;-0.30;99.90;;;;;;5037657;28;20049;-61
2021/03/19 06:05:10;;;;;;;7.75;5.28;;;-0.20;99.90;;;;;;5036691;28;20319;-60
2021/03/19 06:08:28;;;;;;;11.23;5.07;;;0.00;99.90;;;;;;5029296;28;20041;-60
2021/03/19 06:11:32;;;;;;;8.80;4.93;;;1.30;99.90;;;;;;5027778;28;20571;-61
2021/03/19 06:14:55;;;;;;;8.07;4.45;;;4.30;99.90;;;;;;5033359;28;20060;-61
2021/03/19 06:18:05;;;;;;;7.72;5.18;;;7.30;95.00;;;;;;5030645;28;20038;-61
2021/03/19 06:21:10;;;;;;;5.85;4.07;;;9.30;92.00;;;;;;5029881;28;20034;-61
2021/03/19 06:24:27;;;;;;;8.63;4.22;;;9.10;90.80;;;;;;5032817;28;20513;-61
2021/03/19 06:27:47;;;;;;;6.85;4.60;;;9.20;87.10;;;;;;5029824;28;20037;-61
2021/03/19 06:31:12;;;;;;;6.68;4.00;;;9.00;87.80;;;;;;5034340;28;20041;-59
2021/03/19 06:34:24;;;;;;;7.95;4.30;;;11.10;82.60;;;;;;5032859;28;20033;-60
2021/03/19 06:37:40;;;;;;;6.38;4.22;;;11.10;77.20;;;;;;5029029;28;20040;-59
2021/03/19 06:40:46;;;;;;;6.82;4.57;;;9.50;80.00;;;;;;5034324;28;20056;-61
2021/03/19 06:43:51;;;;;;;11.00;4.95;;;8.90;80.90;;;;;;5029107;28;20033;-60
2021/03/19 06:47:14;;;;;;;6.93;4.93;;;6.10;85.70;;;;;;5028980;28;21093;-60
2021/03/19 06:50:24;;;;;;;7.03;4.72;;;4.00;91.80;;;;;;5027684;28;20033;-61
2021/03/19 06:53:32;;;;;;;8.80;4.75;;;4.40;93.40;;;;;;5033001;28;20052;-62
2021/03/19 06:56:38;;;;;;;48.55;19.15;;;4.90;93.50;;;;;;5030684;28;20029;-60
2021/03/19 06:59:57;;;;;;;14.82;8.13;;;5.80;93.30;;;;;;5023426;28;20423;-61
2021/03/19 07:03:11;;;;;;;13.20;8.63;;;6.10;91.60;;;;;;5023688;28;20414;-60
2021/03/19 07:06:49;;;;;;;10.43;6.45;;;6.40;91.70;;;;;;5023140;28;20079;-62
2021/03/19 07:10:22;;;;;;;12.43;5.93;;;7.10;90.80;;;;;;5027038;28;20056;-62
2021/03/19 07:13:41;;;;;;;8.68;5.00;;;8.60;86.90;;;;;;5029310;28;20408;-60
2021/03/19 07:16:58;;;;;;;6.95;4.97;;;9.60;84.70;;;;;;5027830;28;20049;-62
2021/03/19 07:20:41;;;;;;;8.20;4.47;;;10.50;81.20;;;;;;5028456;28;20044;-62
2021/03/19 07:24:11;;;;;;;11.93;6.90;;;9.40;79.10;;;;;;5035185;28;20048;-60
2021/03/19 07:27:38;;;;;;;6.65;4.50;;;10.20;78.60;;;;;;5031015;28;20442;-62
2021/03/19 07:30:58;;;;;;;7.13;4.50;;;11.50;76.70;;;;;;5017006;28;20044;-61
2021/03/19 07:34:40;;;;;;;7.38;4.25;;;11.00;76.10;;;;;;5031958;28;20071;-61
2021/03/19 07:38:14;;;;;;;6.60;4.60;;;11.80;75.10;;;;;;5032409;28;20055;-62
2021/03/19 07:41:27;;;;;;;10.20;5.70;;;10.30;76.10;;;;;;5034409;28;20044;-62
2021/03/19 07:45:04;;;;;;;9.68;5.90;;;10.00;78.90;;;;;;5036148;28;20036;-60
2021/03/19 07:48:24;;;;;;;11.38;6.55;;;11.90;73.60;;;;;;5036845;28;20048;-62
2021/03/19 07:52:19;;;;;;;11.45;6.55;;;9.60;76.10;;;;;;5040236;28;20534;-61
2021/03/19 07:55:31;;;;;;;8.93;5.20;;;10.10;76.60;;;;;;5023123;28;20403;-61
2021/03/19 07:59:01;;;;;;;6.78;4.70;;;10.40;76.30;;;;;;5034166;28;20060;-62
2021/03/19 08:02:21;;;;;;;8.88;5.25;;;10.30;76.40;;;;;;5034315;28;20048;-61
2021/03/19 08:05:29;;;;;;;8.25;5.00;;;13.80;71.40;;;;;;5047520;28;20064;-60
2021/03/19 08:08:43;;;;;;;6.50;4.13;;;14.50;66.50;;;;;;5043268;22;20535;-64
2021/03/19 08:11:56;;;;;;;5.88;4.30;;;15.60;64.00;;;;;;4992442;28;20045;-64
2021/03/19 08:15:33;;;;;;;4.10;3.60;;;18.40;60.40;;;;;;5006322;28;20048;-64
2021/03/19 08:19:00;;;;;;;6.32;3.75;;;16.70;56.50;;;;;;5007684;28;20045;-64
2021/03/19 08:22:27;;;;;;;6.25;4.20;;;18.90;55.90;;;;;;4996429;28;20045;-64
2021/03/19 08:25:52;;;;;;;5.20;3.88;;;16.10;53.40;;;;;;5009009;28;20044;-64
2021/03/19 08:29:10;;;;;;;4.43;3.83;;;16.90;56.40;;;;;;5009637;28;20037;-64
2021/03/19 08:32:33;;;;;;;6.82;4.20;;;18.20;53.50;;;;;;5008179;28;20037;-64
2021/03/19 08:36:39;;;;;;;5.80;4.30;;;14.20;57.90;;;;;;5007500;28;20991;-63
2021/03/19 08:39:45;;;;;;;6.35;4.32;;;14.20;59.10;;;;;;5001535;28;20044;-64
2021/03/19 08:42:53;;;;;;;6.55;4.28;;;13.30;62.70;;;;;;4994962;28;20974;-64
2021/03/19 08:46:16;;;;;;;8.48;4.82;;;15.40;59.30;;;;;;4972141;28;20609;-64
2021/03/19 08:49:26;;;;;;;6.80;4.63;;;17.20;58.10;;;;;;4975993;28;20499;-64
2021/03/19 08:52:35;;;;;;;9.77;4.63;;;18.50;54.80;;;;;;4991032;28;20123;-63
2021/03/19 08:56:05;;;;;;;10.38;5.65;;;18.30;54.10;;;;;;5000055;28;20045;-63
2021/03/19 08:59:11;;;;;;;9.80;5.90;;;13.20;59.80;;;;;;4983048;28;20515;-63
2021/03/19 09:02:24;;;;;;;9.80;5.80;;;11.30;64.10;;;;;;4994536;28;20038;-64
2021/03/19 09:05:36;;;;;;;7.88;4.97;;;12.50;65.80;;;;;;4988652;28;20412;-63
2021/03/19 09:08:43;;;;;;;11.60;5.53;;;15.00;61.90;;;;;;4998074;28;20518;-64
2021/03/19 09:11:50;;;;;;;10.07;5.47;;;17.10;55.10;;;;;;4999006;28;20064;-64
2021/03/19 09:15:14;;;;;;;10.05;5.40;;;17.00;57.60;;;;;;4996829;28;20048;-63
2021/03/19 09:18:45;;;;;;;9.15;5.35;;;20.80;51.90;;;;;;4999536;28;20029;-64
2021/03/19 09:21:50;;;;;;;6.30;4.43;;;21.50;49.10;;;;;;4998188;28;20056;-64
2021/03/19 09:28:17;;;;;;;5.85;4.10;;;24.50;46.60;;;;;;5001892;28;20056;-63
2021/03/19 09:31:24;;;;;;;8.02;3.88;;;27.20;44.30;;;;;;4999197;28;20517;-63
2021/03/19 09:34:46;;;;;;;4.97;3.05;;;28.90;40.60;;;;;;4997728;28;20420;-64
2021/03/19 09:37:54;;;;;;;5.30;3.20;;;25.30;38.90;;;;;;5001864;28;20053;-63
2021/03/19 09:41:01;;;;;;;5.63;3.67;;;22.50;41.10;;;;;;5002183;28;20523;-63
2021/03/19 09:44:28;;;;;;;4.50;3.30;;;22.20;42.20;;;;;;4997417;28;20045;-64
2021/03/19 09:48:08;;;;;;;6.40;3.33;;;25.10;39.90;;;;;;5002283;28;20061;-63
2021/03/19 09:51:35;;;;;;;4.30;3.45;;;27.60;39.10;;;;;;4999449;28;20040;-64
2021/03/19 09:54:40;;;;;;;4.97;3.17;;;30.10;37.40;;;;;;4985529;28;20076;-64
2021/03/19 09:57:46;;;;;;;4.25;3.10;;;32.00;35.90;;;;;;4996810;28;20040;-64
2021/03/19 10:01:05;;;;;;;4.85;3.50;;;32.30;35.50;;;;;;4998571;28;20412;-64
2021/03/19 10:04:25;;;;;;;3.95;3.28;;;33.20;34.40;;;;;;4992692;28;20069;-64
2021/03/19 10:07:32;;;;;;;4.22;3.70;;;34.00;33.20;;;;;;4998860;28;20069;-64
2021/03/19 10:10:42;;;;;;;4.22;3.55;;;34.00;31.90;;;;;;4997069;28;20048;-64
2021/03/19 10:13:46;;;;;;;6.20;3.80;;;30.30;32.60;;;;;;4993808;28;20064;-64
2021/03/19 10:17:08;;;;;;;4.75;3.88;;;29.50;33.90;;;;;;4997712;28;20049;-64
2021/03/19 10:20:26;;;;;;;4.18;3.40;;;30.80;34.60;;;;;;5000474;28;20133;-64
2021/03/19 10:23:34;;;;;;;4.00;3.10;;;31.50;33.70;;;;;;4995551;28;20048;-64
2021/03/19 10:26:52;;;;;;;4.50;3.35;;;28.30;33.20;;;;;;4996306;28;20053;-63
2021/03/19 10:29:56;;;;;;;5.60;3.13;;;27.90;33.30;;;;;;4997409;28;20045;-63
2021/03/19 10:33:30;;;;;;;2.83;2.15;;;26.50;33.50;;;;;;4996246;28;20083;-63
2021/03/19 10:36:57;;;;;;;3.25;2.10;;;26.40;34.20;;;;;;4998438;28;20048;-63
2021/03/19 10:40:04;;;;;;;3.40;2.50;;;26.40;33.00;;;;;;4999179;28;20053;-63
2021/03/19 10:43:40;;;;;;;11.93;8.30;;;23.00;35.10;;;;;;4996169;28;20428;-63
2021/03/19 10:47:08;;;;;;;4.47;2.22;;;21.10;37.60;;;;;;5000115;28;20053;-62
2021/03/19 10:50:18;;;;;;;3.30;2.20;;;21.20;36.90;;;;;;4996397;28;20072;-63
2021/03/19 10:53:39;;;;;;;2.20;1.80;;;17.10;39.10;;;;;;4991089;28;20049;-63
2021/03/19 10:56:59;;;;;;;4.00;2.60;;;15.10;42.50;;;;;;4992484;28;20038;-64
2021/03/19 11:00:28;;;;;;;4.38;2.35;;;13.70;43.90;;;;;;4992528;28;20053;-62
2021/03/19 11:03:45;;;;;;;3.10;1.80;;;12.50;45.70;;;;;;4991067;28;20049;-64
2021/03/19 11:06:51;;;;;;;3.00;2.30;;;12.20;45.90;;;;;;4994599;28;20048;-64
2021/03/19 11:10:06;;;;;;;3.35;2.38;;;12.70;44.90;;;;;;4997925;28;20065;-63
2021/03/19 11:13:14;;;;;;;4.22;2.67;;;12.70;45.30;;;;;;4990579;28;20082;-61
2021/03/19 11:16:35;;;;;;;3.08;1.95;;;13.10;47.70;;;;;;4993191;28;20049;-65
2021/03/19 11:20:00;;;;;;;3.58;2.13;;;15.30;42.60;;;;;;5001131;28;20049;-63
2021/03/19 11:23:21;;;;;;;3.47;2.08;;;13.70;44.20;;;;;;4998083;28;20053;-63
2021/03/19 11:26:30;;;;;;;2.83;1.85;;;12.40;45.00;;;;;;4991248;28;20064;-63
2021/03/19 11:29:38;;;;;;;2.35;2.00;;;12.40;45.60;;;;;;4997320;28;20044;-63
2021/03/19 11:32:43;;;;;;;3.95;1.83;;;12.60;46.00;;;;;;4993085;28;21575;-64
2021/03/19 11:36:07;;;;;;;3.80;2.13;;;13.10;45.60;;;;;;4995789;28;20044;-63
2021/03/19 11:39:15;;;;;;;4.10;1.60;;;13.40;42.50;;;;;;4997882;28;20056;-64
2021/03/19 11:42:24;;;;;;;3.00;2.20;;;14.10;43.40;;;;;;4999196;28;20163;-63
2021/03/19 11:45:33;;;;;;;4.10;3.10;;;14.60;43.80;;;;;;4986948;28;20053;-63
2021/03/19 11:48:41;;;;;;;5.15;2.72;;;11.80;48.30;;;;;;4999351;28;20052;-63
2021/03/19 11:51:47;;;;;;;4.38;2.58;;;15.00;46.10;;;;;;4995017;28;20329;-65
2021/03/19 11:54:52;;;;;;;5.05;2.20;;;19.00;43.20;;;;;;4991066;28;20049;-64
2021/03/19 11:57:59;;;;;;;3.17;2.20;;;18.80;40.40;;;;;;4984810;28;20049;-64
2021/03/19 12:01:05;;;;;;;2.90;1.88;;;18.30;40.60;;;;;;4996362;28;20503;-64
2021/03/19 12:04:22;;;;;;;2.08;1.80;;;17.00;41.90;;;;;;4983815;28;20487;-63
2021/03/19 12:07:26;;;;;;;2.72;1.90;;;15.90;42.80;;;;;;4999887;28;21287;-63
2021/03/19 12:10:31;;;;;;;3.25;2.00;;;14.70;44.90;;;;;;4997359;28;20049;-63
2021/03/19 12:13:36;;;;;;;3.95;1.80;;;13.80;44.60;;;;;;4995767;28;20041;-62
2021/03/19 12:16:40;;;;;;;3.85;2.10;;;13.50;45.80;;;;;;5002647;28;20061;-62
2021/03/19 12:19:44;;;;;;;2.38;1.60;;;14.90;45.60;;;;;;5002770;28;20049;-63
2021/03/19 12:22:48;;;;;;;20.45;8.63;;;18.20;40.60;;;;;;4992555;28;20052;-63
2021/03/19 12:25:53;;;;;;;3.90;1.70;;;20.10;39.60;;;;;;4999163;28;20045;-63
2021/03/19 12:28:59;;;;;;;3.50;2.72;;;22.20;38.10;;;;;;4998679;28;20062;-64
2021/03/19 12:32:05;;;;;;;16.48;8.52;;;22.40;35.70;;;;;;5004476;28;20059;-64
2021/03/19 12:35:14;;;;;;;9.45;2.63;;;21.50;36.10;;;;;;5000320;28;20491;-64
2021/03/19 12:38:20;;;;;;;3.67;2.33;;;19.50;37.30;;;;;;4999461;28;20045;-64
2021/03/19 12:41:25;;;;;;;16.33;7.07;;;17.80;38.90;;;;;;4985418;28;20049;-64
2021/03/19 12:44:30;;;;;;;15.75;6.40;;;17.00;39.30;;;;;;4995129;28;20053;-64
2021/03/19 12:47:35;;;;;;;6.45;3.83;;;16.70;39.30;;;;;;5000336;28;20045;-63
2021/03/19 12:50:40;;;;;;;3.13;2.50;;;16.30;39.80;;;;;;4999940;28;20052;-63
2021/03/19 12:53:46;;;;;;;4.60;2.63;;;15.70;41.00;;;;;;4994847;28;20519;-64
2021/03/19 12:56:51;;;;;;;4.70;2.83;;;15.30;43.00;;;;;;4997439;28;20057;-63
2021/03/19 12:59:55;;;;;;;6.70;2.55;;;14.80;44.10;;;;;;4996783;28;20049;-63
2021/03/19 13:02:59;;;;;;;3.58;2.28;;;14.10;44.50;;;;;;4996626;28;20052;-63
2021/03/19 13:06:05;;;;;;;3.95;1.95;;;13.30;44.70;;;;;;4998907;28;20052;-62
2021/03/19 13:09:13;;;;;;;3.95;2.50;;;12.50;45.80;;;;;;4999394;28;20041;-63
2021/03/19 13:12:18;;;;;;;5.35;2.00;;;12.20;46.10;;;;;;4997670;28;20068;-62
2021/03/19 13:15:26;;;;;;;3.35;2.20;;;12.00;48.00;;;;;;4994824;28;20041;-65
2021/03/19 13:18:31;;;;;;;5.40;2.53;;;12.00;48.20;;;;;;4997560;28;20053;-64
2021/03/19 13:21:35;;;;;;;4.43;2.47;;;12.10;48.70;;;;;;4996120;28;20109;-60
2021/03/19 13:24:40;;;;;;;2.83;2.25;;;11.60;47.50;;;;;;4980334;28;20057;-63
2021/03/19 13:27:44;;;;;;;2.90;1.55;;;11.20;47.80;;;;;;4996158;28;20045;-60
2021/03/19 13:30:51;;;;;;;3.95;2.00;;;11.30;48.40;;;;;;4995520;28;20291;-64
2021/03/19 13:33:55;;;;;;;3.40;1.77;;;11.00;47.70;;;;;;4990560;28;20045;-64
2021/03/19 13:37:00;;;;;;;4.47;1.95;;;11.50;47.10;;;;;;4995215;28;20052;-62
2021/03/19 13:40:06;;;;;;;4.10;1.80;;;12.00;47.50;;;;;;4994809;28;20041;-63
2021/03/19 13:43:13;;;;;;;22.23;9.45;;;12.10;46.40;;;;;;4993503;28;20052;-62
2021/03/19 13:46:18;;;;;;;24.23;10.18;;;12.00;49.50;;;;;;4998850;28;20049;-63
2021/03/19 13:49:23;;;;;;;12.45;5.15;;;11.80;50.40;;;;;;4995405;28;20044;-63
2021/03/19 13:52:26;;;;;;;8.88;4.97;;;11.70;50.20;;;;;;4996179;28;20416;-63
2021/03/19 13:55:31;;;;;;;40.63;21.42;;;12.00;50.00;;;;;;4998373;28;20057;-64
2021/03/19 13:58:35;;;;;;;10.63;6.80;;;13.20;49.30;;;;;;5000647;28;20432;-63
2021/03/19 14:01:40;;;;;;;18.23;10.98;;;15.20;45.70;;;;;;5002317;28;20537;-64
2021/03/19 14:04:45;;;;;;;17.88;9.23;;;16.30;43.30;;;;;;4997771;28;20053;-64
2021/03/19 14:07:50;;;;;;;11.77;6.50;;;16.30;42.40;;;;;;5005967;28;20044;-64
2021/03/19 14:10:56;;;;;;;3.13;2.15;;;15.90;43.00;;;;;;5008955;28;20045;-64
2021/03/19 14:14:00;;;;;;;8.20;4.80;;;15.80;43.90;;;;;;5005991;28;20037;-64
2021/03/19 14:17:04;;;;;;;10.68;4.28;;;15.70;44.30;;;;;;5010203;28;20073;-64
2021/03/19 14:20:09;;;;;;;26.10;12.23;;;14.50;45.10;;;;;;5010689;28;20048;-63
2021/03/19 14:23:13;;;;;;;7.88;4.88;;;14.10;45.10;;;;;;5009811;28;20049;-63
2021/03/19 14:26:18;;;;;;;9.88;3.83;;;13.90;46.00;;;;;;5003549;28;20049;-55
2021/03/19 14:29:22;;;;;;;5.43;3.22;;;13.60;47.10;;;;;;4983040;28;20109;-59
2021/03/19 14:32:26;;;;;;;7.45;4.22;;;12.80;47.80;;;;;;4998223;28;20033;-56
2021/03/19 14:35:33;;;;;;;7.05;4.07;;;12.60;48.00;;;;;;4997868;28;20053;-57
2021/03/19 14:38:38;;;;;;;7.22;3.80;;;12.00;48.70;;;;;;4997168;28;20070;-57
2021/03/19 14:41:42;;;;;;;7.05;3.00;;;11.70;49.80;;;;;;5006440;28;20041;-54
2021/03/19 14:44:47;;;;;;;6.18;3.33;;;11.20;50.20;;;;;;4999620;28;20104;-58
2021/03/19 14:47:51;;;;;;;7.80;4.25;;;10.70;51.30;;;;;;5001235;28;20868;-58
2021/03/19 14:51:00;;;;;;;6.55;3.60;;;10.80;52.20;;;;;;4999293;28;20052;-60
2021/03/19 14:54:04;;;;;;;7.18;3.53;;;10.70;52.40;;;;;;4994651;28;20041;-58
2021/03/19 14:57:08;;;;;;;7.22;3.38;;;10.50;52.80;;;;;;4990620;28;20065;-57
2021/03/19 15:00:23;;;;;;;6.32;3.03;;;10.10;54.70;;;;;;4993849;28;20106;-54
2021/03/19 15:03:27;;;;;;;6.40;3.42;;;9.80;55.50;;;;;;4991149;28;20064;-61
2021/03/19 15:06:31;;;;;;;7.18;3.85;;;9.50;55.70;;;;;;4998947;28;20685;-54
2021/03/19 15:09:36;;;;;;;9.88;4.35;;;9.60;56.10;;;;;;4991503;28;20038;-57
2021/03/19 15:12:41;;;;;;;4.68;3.20;;;9.70;56.40;;;;;;4991599;28;20042;-57
2021/03/19 15:15:45;;;;;;;7.88;4.28;;;9.60;56.00;;;;;;4992135;28;20038;-55
2021/03/19 15:18:49;;;;;;;8.48;3.92;;;9.50;56.10;;;;;;4984624;28;20038;-57
2021/03/19 15:21:53;;;;;;;7.93;3.88;;;9.50;55.40;;;;;;5010020;28;20030;-57
2021/03/19 15:25:00;;;;;;;9.73;4.32;;;9.50;56.40;;;;;;5009466;28;20037;-58
2021/03/19 15:28:05;;;;;;;5.20;2.88;;;9.60;56.60;;;;;;5004501;28;20037;-56
2021/03/19 15:31:11;;;;;;;7.63;3.38;;;9.60;56.00;;;;;;4991602;28;20039;-55
2021/03/19 15:34:15;;;;;;;6.88;2.67;;;9.20;57.60;;;;;;4999980;28;20045;-59
2021/03/19 15:37:19;;;;;;;4.68;2.95;;;9.10;57.50;;;;;;4996093;28;20038;-59
2021/03/19 15:40:29;;;;;;;5.47;3.45;;;9.40;56.80;;;;;;5003335;28;20050;-61
2021/03/19 15:43:33;;;;;;;5.72;3.30;;;9.60;55.70;;;;;;4997142;28;20039;-56
2021/03/19 15:46:39;;;;;;;11.85;4.53;;;9.70;54.60;;;;;;4993083;28;20521;-57
2021/03/19 15:49:49;;;;;;;9.13;4.33;;;9.80;55.90;;;;;;5001686;28;20050;-56
2021/03/19 15:52:54;;;;;;;6.22;4.10;;;9.80;54.90;;;;;;5000586;28;20034;-55
2021/03/19 15:56:00;;;;;;;4.88;3.22;;;9.80;54.60;;;;;;5003981;28;20022;-55
2021/03/19 15:59:04;;;;;;;5.10;2.75;;;9.90;54.50;;;;;;4998038;28;20022;-58
2021/03/19 16:02:09;;;;;;;7.30;4.15;;;9.80;53.70;;;;;;5002870;28;20068;-54
2021/03/19 16:05:14;;;;;;;10.93;4.88;;;9.60;54.80;;;;;;5008499;28;20397;-56
2021/03/19 16:08:25;;;;;;;7.90;4.82;;;9.50;54.80;;;;;;5000904;28;20041;-54
2021/03/19 16:11:29;;;;;;;6.38;3.13;;;9.40;54.80;;;;;;5008667;28;20370;-57
2021/03/19 16:14:33;;;;;;;5.70;3.15;;;9.40;54.90;;;;;;5002709;28;20042;-57
2021/03/19 16:17:39;;;;;;;5.68;3.75;;;9.40;54.70;;;;;;5010061;28;20037;-59
2021/03/19 16:20:44;;;;;;;11.23;4.38;;;9.50;55.30;;;;;;5011804;28;20037;-59
2021/03/19 16:23:48;;;;;;;6.80;3.15;;;9.50;55.50;;;;;;4999781;28;20041;-57
2021/03/19 16:26:53;;;;;;;4.18;2.72;;;9.40;55.60;;;;;;4988314;28;20058;-60
2021/03/19 16:30:08;;;;;;;18.45;9.68;;;9.20;57.00;;;;;;5013640;28;20048;-56
2021/03/19 16:33:12;;;;;;;12.88;5.72;;;9.10;57.90;;;;;;5012890;28;20044;-54
2021/03/19 16:36:20;;;;;;;8.48;4.93;;;9.10;57.80;;;;;;4997426;28;20048;-55
2021/03/19 16:39:24;;;;;;;13.75;5.90;;;8.80;57.20;;;;;;5008491;28;20896;-57
2021/03/19 16:42:28;;;;;;;11.02;6.20;;;8.70;60.00;;;;;;5008507;28;20049;-56